Rives Junction, Michigan
Current Conditions -  °F | °C
As of 7:56 AM on Thursday 30 Oct 2014 (Local Time) from KJXN Reporting Station
Few Clouds Few Clouds  
Wind Chill: 31°   Ceiling: Unl
Heat Index: 31°   Visibility: 10mi
Dew Point: 30°   Wind: 0mph
Humidity: 96%   Direction: NA
Pressure: 30.12"   Gusts: NA
Location:  42.39°N, 84.46°W
Report Text: KJXN 301156Z 00000KT 10SM FEW039 M01/M01 A3012 RMK AO2 SLP209 70001 I1000 I6000 T10061011 10022 21011 51003
Loading
Personal Weather Stations






























Interactive Weather Map
Tropical Storm Tracking
New forecast layout! Learn more

10-Day Weather Forecast

Advertisements
Track Severe Weather on mobile